Close Search

Base
°C
Summit
°C

WEATHER AT A GLANCE

Image Slideshow

RMR Village

Revelstoke Mountain Resort -  RMR Village Webcam

Top of The Stoke

Revelstoke Mountain Resort -  Top of The Stoke Webcam

Top of Stellar

Revelstoke Mountain Resort -  Top of Stellar Webcam

Mackenzie Outpost

Revelstoke Mountain Resort -  Mackenzie Outpost Webcam

Ripper

Revelstoke Mountain Resort -  Ripper Webcam
Base
°C
Summit
°C
Wind (Summit)
km/h

Today's Forecast

Subpeak Weather

Time Avg. Air Temp Dew Point Avg. Rel Humidity Avg. 2 Min Wind Speed Max Gust Velocity MGV Time MGV Direction Avg. Spot Wind Velocity
2026-05-04 20:00:004° C-5° C55%22 km/h32 km/h20:00:00N21 km/h
19:00:005° C-3° C56%1 km/h16 km/h18:56:00W2 km/h
18:00:005° C-3° C52%15 km/h18 km/h17:58:00NE13 km/h
17:00:006° C-3° C51%5 km/h11 km/h17:00:00W4 km/h
16:00:006° C-3° C54%3 km/h8 km/h15:56:00SW4 km/h
15:00:006° C-3° C52%5 km/h14 km/h14:56:00SW3 km/h
14:00:006° C-3° C53%4 km/h12 km/h13:57:00SW6 km/h
13:00:005° C-3° C54%5 km/h10 km/h12:59:00NE4 km/h
12:00:005° C-3° C55%7 km/h13 km/h12:00:00NE8 km/h
11:00:004° C-3° C61%18 km/h30 km/h10:56:00N21 km/h
10:00:003° C-3° C61%36 km/h40 km/h09:59:00NE36 km/h
09:00:003° C-3° C61%33 km/h38 km/h09:00:00NE32 km/h
08:00:003° C-3° C60%25 km/h41 km/h07:56:00N26 km/h
07:00:003° C-3° C60%35 km/h39 km/h06:59:00NE34 km/h
06:00:004° C-4° C57%24 km/h28 km/h05:58:00NE26 km/h
05:00:004° C-4° C57%23 km/h24 km/h04:57:00NE22 km/h
04:00:004° C-4° C55%20 km/h28 km/h03:59:00NE17 km/h
03:00:004° C-4° C56%20 km/h27 km/h03:00:00NE16 km/h
02:00:004° C-4° C57%13 km/h25 km/h01:58:00NW17 km/h
01:00:004° C-4° C55%7 km/h14 km/h00:59:00SW6 km/h
00:00:005° C-4° C52%6 km/h15 km/h23:59:00SW6 km/h
23:00:006° C-3° C53%5 km/h24 km/h22:57:00N7 km/h
22:00:006° C-2° C55%2 km/h14 km/h21:57:00NE4 km/h
21:00:007° C-3° C50%19 km/h23 km/h20:59:00NW18 km/h

Time Avg. Air Temp Dew Point Avg. Rel Humidity Avg. 2 Min Wind Speed Max Gust Velocity MGV Time MGV Direction Avg. Spot Wind Velocity
2026-05-04 20:00:004° C-5° C55%22 km/h32 km/h20:00:00N21 km/h
19:55:004° C-4° C55%17 km/h35 km/h19:53:00N22 km/h
19:50:004° C-4° C55%24 km/h32 km/h19:47:00NE23 km/h
19:45:004° C-4° C56%24 km/h28 km/h19:42:00NE21 km/h
19:40:004° C-4° C55%19 km/h28 km/h19:36:00N14 km/h
19:35:004° C-4° C55%15 km/h24 km/h19:34:00NE17 km/h
19:30:004° C-4° C55%19 km/h25 km/h19:30:00NE13 km/h
19:25:004° C-4° C56%8 km/h22 km/h19:22:00NE9 km/h
19:20:005° C-4° C56%10 km/h22 km/h19:17:00N7 km/h
19:15:005° C-4° C56%10 km/h17 km/h19:14:00NE10 km/h
19:10:005° C-3° C56%4 km/h16 km/h19:06:00N7 km/h
19:05:005° C-3° C55%14 km/h22 km/h19:05:00NE9 km/h
19:00:005° C-3° C56%1 km/h16 km/h18:56:00W2 km/h

We value your privacy
We use cookies to enhance your browsing experience, serve personalized ads or content, and analyze our traffic. By clicking "Allow Cookies", you consent to our use of cookies. For additional details view our Privacy Policy.
Cookie preferences

You can control how your data is used on our website. Learn more below about the cookies we use by reviewing our Privacy Policy.

Your cookie preferences have been saved.